createdAt,value
2023-04-10T00:01:36.764Z,23.81
2023-04-10T00:04:13.729Z,23.65
2023-04-10T00:06:47.970Z,25.35
2023-04-10T00:09:21.375Z,25.01
2023-04-10T00:22:33.362Z,24.93
2023-04-10T00:25:07.828Z,24.13
2023-04-10T00:27:41.369Z,23.72
2023-04-10T00:30:14.835Z,24.78
2023-04-10T00:32:48.419Z,24.79
2023-04-10T00:35:21.824Z,24.47
2023-04-10T00:48:12.330Z,24.46
2023-04-10T00:50:53.396Z,24.17
2023-04-10T00:53:28.124Z,24.39
2023-04-10T00:56:03.366Z,24.24
2023-04-10T00:58:36.553Z,24.23
2023-04-10T01:01:16.495Z,23.53
2023-04-10T01:14:41.350Z,25.79
2023-04-10T01:17:25.651Z,25.85
2023-04-10T01:20:11.356Z,25.02
2023-04-10T01:23:19.658Z,26.39
2023-04-10T01:26:05.366Z,26.82
2023-04-10T01:28:59.409Z,25.08
2023-04-10T01:31:48.353Z,25.47
2023-04-10T01:41:42.314Z,25.62
2023-04-10T01:44:28.354Z,25.26
2023-04-10T01:47:04.380Z,25.49
2023-04-10T01:49:41.301Z,24.90
2023-04-10T01:52:16.584Z,24.33
2023-04-10T01:54:56.346Z,24.69
2023-04-10T02:08:26.387Z,23.75
2023-04-10T02:11:15.032Z,25.53
2023-04-10T02:13:59.346Z,24.49
2023-04-10T02:16:35.408Z,25.00
2023-04-10T02:19:12.347Z,25.52
2023-04-10T02:21:46.633Z,25.27
2023-04-10T02:34:37.335Z,25.39
2023-04-10T02:37:17.373Z,25.37
2023-04-10T02:39:58.722Z,25.25
2023-04-10T02:42:48.384Z,25.83
2023-04-10T02:45:21.956Z,24.51
2023-04-10T02:47:55.461Z,24.32
2023-04-10T02:50:30.794Z,25.75
2023-04-10T03:03:19.398Z,25.85
2023-04-10T03:06:06.213Z,25.43
2023-04-10T03:08:43.464Z,25.14
2023-04-10T03:11:18.363Z,24.74
2023-04-10T03:13:52.007Z,25.94
2023-04-10T03:16:25.411Z,25.30
2023-04-10T03:29:38.353Z,24.94
2023-04-10T03:32:12.475Z,24.27
2023-04-10T03:34:46.351Z,24.98
2023-04-10T03:37:19.717Z,25.02
2023-04-10T03:39:53.351Z,24.13
2023-04-10T03:56:31.309Z,24.00
2023-04-10T03:59:12.099Z,24.86
2023-04-10T04:01:45.781Z,24.06
2023-04-10T04:04:19.389Z,24.59
2023-04-10T04:07:15.610Z,24.89
2023-04-10T04:10:06.413Z,24.84
2023-04-10T04:23:29.320Z,23.66
2023-04-10T04:26:12.797Z,24.38
2023-04-10T04:29:16.334Z,24.72
2023-04-10T04:32:05.960Z,23.86
2023-04-10T04:35:04.330Z,25.34
2023-04-10T04:48:50.343Z,25.23
2023-04-10T04:51:53.042Z,26.12
2023-04-10T04:54:44.345Z,25.99
2023-04-10T04:57:41.132Z,25.74
2023-04-10T05:00:32.090Z,25.07
2023-04-10T05:17:28.360Z,25.95
2023-04-10T05:20:24.340Z,25.47
2023-04-10T05:23:04.702Z,25.64
2023-04-10T05:26:01.345Z,26.03
2023-04-10T05:29:06.766Z,26.48
2023-04-10T05:42:30.286Z,26.71
2023-04-10T05:45:30.347Z,26.79
2023-04-10T05:48:19.022Z,26.40
2023-04-10T05:51:18.349Z,26.73
2023-04-10T05:54:24.581Z,28.20
2023-04-10T06:11:00.350Z,28.72
2023-04-10T06:13:34.689Z,28.97
2023-04-10T06:16:09.418Z,28.96
2023-04-10T06:18:43.997Z,28.47
2023-04-10T06:21:17.305Z,28.47
2023-04-10T06:35:12.331Z,27.65
2023-04-10T06:37:47.777Z,27.65
2023-04-10T06:40:22.378Z,28.01
2023-04-10T06:42:55.585Z,27.50
2023-04-10T06:45:35.312Z,28.14
2023-04-10T06:48:08.817Z,26.97
2023-04-10T06:50:42.317Z,28.10
2023-04-10T07:03:54.360Z,27.90
2023-04-10T07:06:27.601Z,28.12
2023-04-10T07:09:01.521Z,27.64
2023-04-10T07:11:34.577Z,28.51
2023-04-10T07:14:08.312Z,28.58
2023-04-10T07:16:41.635Z,28.38
2023-04-10T07:29:32.298Z,28.58
2023-04-10T07:32:12.446Z,28.40
2023-04-10T07:34:45.538Z,28.02
2023-04-10T07:37:19.335Z,27.76
2023-04-10T07:39:52.707Z,28.27
2023-04-10T07:56:08.328Z,27.45
2023-04-10T07:58:41.572Z,27.80
2023-04-10T08:01:15.344Z,26.38
2023-04-10T08:03:48.810Z,27.53
2023-04-10T08:06:22.301Z,26.56
2023-04-10T08:08:55.712Z,26.13
2023-04-10T08:11:37.371Z,26.50
2023-04-10T08:22:09.279Z,26.60
2023-04-10T08:24:49.955Z,25.22
2023-04-10T08:27:25.497Z,26.05
2023-04-10T08:29:59.314Z,25.81
2023-04-10T08:32:32.759Z,26.09
2023-04-10T08:35:06.312Z,25.00
2023-04-10T08:49:04.327Z,24.17
2023-04-10T08:51:47.854Z,24.31
2023-04-10T08:54:34.320Z,23.30
2023-04-10T08:57:11.968Z,23.70
2023-04-10T08:59:52.307Z,23.30
2023-04-10T09:02:25.773Z,23.12
2023-04-10T09:05:04.355Z,22.81
2023-04-10T09:18:11.383Z,22.54
2023-04-10T09:20:40.298Z,20.99
2023-04-10T09:23:27.285Z,20.40
2023-04-10T09:26:00.521Z,20.56
2023-04-10T09:28:34.438Z,20.66
2023-04-10T09:31:32.289Z,19.62
2023-04-10T09:44:38.308Z,17.98
2023-04-10T09:47:27.361Z,16.82
2023-04-10T09:50:01.621Z,16.47
2023-04-10T09:52:37.326Z,16.89
2023-04-10T09:55:16.988Z,16.70
2023-04-10T10:11:41.303Z,15.03
2023-04-10T10:14:19.840Z,15.62
2023-04-10T10:17:05.491Z,14.88
2023-04-10T10:19:49.313Z,15.15
2023-04-10T10:22:32.277Z,15.76
2023-04-10T10:25:09.123Z,15.69
2023-04-10T10:38:08.281Z,13.77
2023-04-10T10:41:04.305Z,14.20
2023-04-10T10:43:52.896Z,14.21
2023-04-10T10:46:47.300Z,14.20
2023-04-10T10:49:20.551Z,12.88
2023-04-10T10:51:56.311Z,12.62
2023-04-10T11:05:08.323Z,10.55
2023-04-10T11:08:08.394Z,11.04
2023-04-10T11:11:06.404Z,11.15
2023-04-10T11:13:43.155Z,10.34
2023-04-10T11:16:23.337Z,10.24
2023-04-10T11:29:44.395Z,10.10
2023-04-10T11:32:17.692Z,10.16
2023-04-10T11:34:51.303Z,10.08
2023-04-10T11:37:24.697Z,10.14
2023-04-10T11:40:10.288Z,10.18
2023-04-10T11:42:43.607Z,9.73
2023-04-10T11:45:34.420Z,10.31
2023-04-10T11:58:44.365Z,10.23
2023-04-10T12:01:21.889Z,10.16
2023-04-10T12:04:02.584Z,10.43
2023-04-10T12:06:36.587Z,9.75
2023-04-10T12:09:20.315Z,9.62
2023-04-10T12:11:57.072Z,9.70
2023-04-10T12:24:56.259Z,9.98
2023-04-10T12:27:37.285Z,10.40
2023-04-10T12:30:10.708Z,9.74
2023-04-10T12:32:44.504Z,9.82
2023-04-10T12:35:17.519Z,10.00
2023-04-10T12:51:52.332Z,10.65
2023-04-10T12:54:30.711Z,10.71
2023-04-10T12:57:12.310Z,10.23
2023-04-10T12:59:45.643Z,9.30
2023-04-10T13:02:19.449Z,9.48
2023-04-10T13:04:52.727Z,9.07
2023-04-10T13:17:43.267Z,10.10
2023-04-10T13:20:30.328Z,10.10
2023-04-10T13:23:03.966Z,9.51
2023-04-10T13:25:39.307Z,9.20
2023-04-10T13:28:12.547Z,9.27
2023-04-10T13:30:49.036Z,9.43
2023-04-10T13:44:01.283Z,10.81
2023-04-10T13:46:34.618Z,10.23
2023-04-10T13:51:38.564Z,10.45
2023-04-10T13:54:05.385Z,9.92
2023-04-10T13:56:45.292Z,10.49
2023-04-10T14:10:06.312Z,10.94
2023-04-10T14:12:39.557Z,10.56
2023-04-10T14:15:15.305Z,10.80
2023-04-10T14:17:48.649Z,10.24
2023-04-10T14:20:22.314Z,10.47
2023-04-10T14:22:55.577Z,10.51
2023-04-10T14:25:31.302Z,10.38
2023-04-10T14:38:41.345Z,9.65
2023-04-10T14:41:16.663Z,10.09
2023-04-10T14:43:50.306Z,10.08
2023-04-10T14:46:23.711Z,9.86
2023-04-10T14:48:57.386Z,9.40
2023-04-10T14:51:30.518Z,8.69
2023-04-10T15:04:21.301Z,7.82
2023-04-10T15:07:01.292Z,7.55
2023-04-10T15:09:34.521Z,7.53
2023-04-10T15:12:08.297Z,7.49
2023-04-10T15:14:41.555Z,7.25
2023-04-10T15:17:15.415Z,7.31
2023-04-10T15:30:27.327Z,7.91
2023-04-10T15:33:00.570Z,7.39
2023-04-10T15:35:34.496Z,7.38
2023-04-10T15:38:07.695Z,7.67
2023-04-10T15:40:44.147Z,7.49
2023-04-10T15:43:17.594Z,7.25
2023-04-10T15:46:00.335Z,7.34
2023-04-10T15:59:10.306Z,6.58
2023-04-10T16:01:45.548Z,6.57
2023-04-10T16:04:19.413Z,6.48
2023-04-10T16:06:52.520Z,6.79
2023-04-10T16:09:26.822Z,7.06
2023-04-10T16:12:00.704Z,7.09
2023-04-10T16:24:51.269Z,6.77
2023-04-10T16:27:31.280Z,7.17
2023-04-10T16:30:06.454Z,7.04
2023-04-10T16:32:40.298Z,7.11
2023-04-10T16:35:13.597Z,7.20
2023-04-10T16:51:39.315Z,7.62
2023-04-10T16:54:13.029Z,7.30
2023-04-10T16:56:46.296Z,7.69
2023-04-10T16:59:19.546Z,7.79
2023-04-10T17:01:54.317Z,7.78
2023-04-10T17:04:27.769Z,7.84
2023-04-10T17:07:03.309Z,7.44
2023-04-10T17:17:19.340Z,7.55
2023-04-10T17:19:59.403Z,7.79
2023-04-10T17:22:34.988Z,7.83
2023-04-10T17:25:08.313Z,7.75
2023-04-10T17:27:41.765Z,7.77
2023-04-10T17:30:20.295Z,7.98
2023-04-10T17:44:07.501Z,8.78
2023-04-10T17:46:40.573Z,9.42
2023-04-10T17:49:15.013Z,9.15
2023-04-10T17:51:49.081Z,9.14
2023-04-10T17:54:22.334Z,9.13
2023-04-10T17:56:55.595Z,9.00
2023-04-10T18:13:12.302Z,8.72
2023-04-10T18:15:45.585Z,8.78
2023-04-10T18:20:48.731Z,8.86
2023-04-10T18:23:15.560Z,8.48
2023-04-10T18:25:59.353Z,8.37
2023-04-10T18:39:11.309Z,8.47
2023-04-10T18:41:44.668Z,8.50
2023-04-10T18:44:18.452Z,8.51
2023-04-10T18:47:01.284Z,8.94
2023-04-10T18:49:44.375Z,8.56
2023-04-10T18:52:17.530Z,8.52
2023-04-10T19:05:08.343Z,8.76
2023-04-10T19:08:00.735Z,8.89
2023-04-10T19:10:37.800Z,8.50
2023-04-10T19:13:11.303Z,9.34
2023-04-10T19:15:46.893Z,9.06
2023-04-10T19:18:20.301Z,9.56
2023-04-10T19:20:55.602Z,8.94
2023-04-10T19:31:04.399Z,9.58
2023-04-10T19:33:37.585Z,9.61
2023-04-10T19:36:14.345Z,10.09
2023-04-10T19:38:47.970Z,10.23
2023-04-10T19:41:21.317Z,10.39
2023-04-10T19:43:54.863Z,10.82
2023-04-10T19:46:29.482Z,10.14
2023-04-10T19:59:41.289Z,11.13
2023-04-10T20:02:14.617Z,11.39
2023-04-10T20:04:48.796Z,11.13
2023-04-10T20:07:22.655Z,10.83
2023-04-10T20:09:56.324Z,10.81
2023-04-10T20:12:30.287Z,11.23
2023-04-10T20:25:20.269Z,11.94
2023-04-10T20:28:00.297Z,12.40
2023-04-10T20:30:34.873Z,12.99
2023-04-10T20:33:08.281Z,12.97
2023-04-10T20:35:41.614Z,13.04
2023-04-10T20:38:15.289Z,12.87
2023-04-10T20:40:50.651Z,12.61
2023-04-10T20:53:40.259Z,12.19
2023-04-10T20:56:24.895Z,12.11
2023-04-10T20:59:03.638Z,12.30
2023-04-10T21:01:37.439Z,12.23
2023-04-10T21:04:10.751Z,12.26
2023-04-10T21:06:44.294Z,12.37
2023-04-10T21:19:56.301Z,12.85
2023-04-10T21:22:29.747Z,13.70
2023-04-10T21:25:03.279Z,14.01
2023-04-10T21:27:36.676Z,13.69
2023-04-10T21:30:11.300Z,13.85
2023-04-10T21:46:48.277Z,13.61
2023-04-10T21:49:28.300Z,13.84
2023-04-10T21:52:01.722Z,14.16
2023-04-10T21:54:36.052Z,14.29
2023-04-10T21:57:09.545Z,13.79
2023-04-10T21:59:43.397Z,14.42
2023-04-10T22:02:18.625Z,15.30
2023-04-10T22:11:42.287Z,15.34
2023-04-10T22:14:18.198Z,15.55
2023-04-10T22:16:59.306Z,15.85
2023-04-10T22:19:34.477Z,15.48
2023-04-10T22:22:08.289Z,15.29
2023-04-10T22:24:41.661Z,14.58
2023-04-10T22:27:15.323Z,14.74
2023-04-10T22:40:27.294Z,15.11
2023-04-10T22:43:00.551Z,14.90
2023-04-10T22:45:40.309Z,14.52
2023-04-10T22:48:13.566Z,14.04
2023-04-10T22:50:47.280Z,14.20
2023-04-10T23:07:24.272Z,14.36
2023-04-10T23:10:04.302Z,15.17
2023-04-10T23:12:37.775Z,14.18
2023-04-10T23:15:13.297Z,14.12
2023-04-10T23:17:46.591Z,14.08
2023-04-10T23:20:20.294Z,14.07
2023-04-10T23:33:32.376Z,15.07
2023-04-10T23:36:06.690Z,15.28
2023-04-10T23:38:40.292Z,15.20
2023-04-10T23:41:16.617Z,14.37
2023-04-10T23:43:58.316Z,13.87
2023-04-10T23:46:31.686Z,14.44
2023-04-10T23:59:22.269Z,15.12
